sensor_id;sensor_type;location;lat;lon;timestamp;temperature;humidity
25937;DHT22;13733;51.178;4.450;2023-03-29T00:01:49;8.60;99.90
25937;DHT22;13733;51.178;4.450;2023-03-29T00:04:17;8.70;99.90
25937;DHT22;13733;51.178;4.450;2023-03-29T00:06:46;8.80;99.90
25937;DHT22;13733;51.178;4.450;2023-03-29T00:09:13;8.90;99.90
25937;DHT22;13733;51.178;4.450;2023-03-29T00:11:39;9.00;99.90
25937;DHT22;13733;51.178;4.450;2023-03-29T00:14:05;9.00;99.90
25937;DHT22;13733;51.178;4.450;2023-03-29T00:16:31;8.90;99.90
25937;DHT22;13733;51.178;4.450;2023-03-29T00:18:57;8.90;99.90
25937;DHT22;13733;51.178;4.450;2023-03-29T00:21:23;9.00;99.90
25937;DHT22;13733;51.178;4.450;2023-03-29T00:23:49;9.00;99.90
25937;DHT22;13733;51.178;4.450;2023-03-29T00:26:14;9.10;99.90
25937;DHT22;13733;51.178;4.450;2023-03-29T00:28:40;9.20;99.90
25937;DHT22;13733;51.178;4.450;2023-03-29T00:31:09;9.10;99.90
25937;DHT22;13733;51.178;4.450;2023-03-29T00:33:36;9.00;99.90
25937;DHT22;13733;51.178;4.450;2023-03-29T00:36:02;9.10;99.90
25937;DHT22;13733;51.178;4.450;2023-03-29T00:38:29;9.40;99.90
25937;DHT22;13733;51.178;4.450;2023-03-29T00:40:55;9.30;99.90
25937;DHT22;13733;51.178;4.450;2023-03-29T00:43:22;9.20;99.90
25937;DHT22;13733;51.178;4.450;2023-03-29T00:45:48;9.30;99.90
25937;DHT22;13733;51.178;4.450;2023-03-29T00:48:22;9.40;99.90
25937;DHT22;13733;51.178;4.450;2023-03-29T00:51:05;9.40;99.90
25937;DHT22;13733;51.178;4.450;2023-03-29T00:53:46;9.20;99.90
25937;DHT22;13733;51.178;4.450;2023-03-29T00:56:25;9.10;99.90
25937;DHT22;13733;51.178;4.450;2023-03-29T01:01:39;9.40;99.90
25937;DHT22;13733;51.178;4.450;2023-03-29T01:04:17;9.60;99.90
25937;DHT22;13733;51.178;4.450;2023-03-29T01:09:26;9.60;99.90
25937;DHT22;13733;51.178;4.450;2023-03-29T01:12:01;9.50;99.90
25937;DHT22;13733;51.178;4.450;2023-03-29T01:14:35;9.40;99.90
25937;DHT22;13733;51.178;4.450;2023-03-29T01:17:03;9.30;99.90
25937;DHT22;13733;51.178;4.450;2023-03-29T01:20:06;9.30;99.90
25937;DHT22;13733;51.178;4.450;2023-03-29T01:28:14;9.10;99.90
25937;DHT22;13733;51.178;4.450;2023-03-29T01:30:48;9.20;99.90
25937;DHT22;13733;51.178;4.450;2023-03-29T01:33:19;9.20;99.90
25937;DHT22;13733;51.178;4.450;2023-03-29T01:41:15;9.20;99.90
25937;DHT22;13733;51.178;4.450;2023-03-29T01:46:33;9.40;99.90
25937;DHT22;13733;51.178;4.450;2023-03-29T01:49:31;9.30;99.90
25937;DHT22;13733;51.178;4.450;2023-03-29T01:52:04;9.10;99.90
25937;DHT22;13733;51.178;4.450;2023-03-29T01:54:35;9.20;99.90
25937;DHT22;13733;51.178;4.450;2023-03-29T01:57:02;9.20;99.90
25937;DHT22;13733;51.178;4.450;2023-03-29T01:59:32;9.00;99.90
25937;DHT22;13733;51.178;4.450;2023-03-29T02:02:01;8.90;99.90
25937;DHT22;13733;51.178;4.450;2023-03-29T02:04:31;8.90;99.90
25937;DHT22;13733;51.178;4.450;2023-03-29T02:07:00;8.90;99.90
25937;DHT22;13733;51.178;4.450;2023-03-29T02:09:28;9.00;99.90
25937;DHT22;13733;51.178;4.450;2023-03-29T02:11:58;9.00;99.90
25937;DHT22;13733;51.178;4.450;2023-03-29T02:14:25;9.10;99.90
25937;DHT22;13733;51.178;4.450;2023-03-29T02:16:51;9.20;99.90
25937;DHT22;13733;51.178;4.450;2023-03-29T02:19:17;9.20;99.90
25937;DHT22;13733;51.178;4.450;2023-03-29T02:21:54;9.30;99.90
25937;DHT22;13733;51.178;4.450;2023-03-29T02:24:23;9.20;99.90
25937;DHT22;13733;51.178;4.450;2023-03-29T02:26:50;9.10;99.90
25937;DHT22;13733;51.178;4.450;2023-03-29T02:29:17;9.00;99.90
25937;DHT22;13733;51.178;4.450;2023-03-29T02:32:07;9.10;99.90
25937;DHT22;13733;51.178;4.450;2023-03-29T02:34:49;9.20;99.90
25937;DHT22;13733;51.178;4.450;2023-03-29T02:37:19;9.30;99.90
25937;DHT22;13733;51.178;4.450;2023-03-29T02:39:48;9.40;99.90
25937;DHT22;13733;51.178;4.450;2023-03-29T02:42:15;9.40;99.90
25937;DHT22;13733;51.178;4.450;2023-03-29T02:44:43;9.40;99.90
25937;DHT22;13733;51.178;4.450;2023-03-29T02:47:15;9.30;99.90
25937;DHT22;13733;51.178;4.450;2023-03-29T02:49:44;9.20;99.90
25937;DHT22;13733;51.178;4.450;2023-03-29T02:52:14;9.20;99.90
25937;DHT22;13733;51.178;4.450;2023-03-29T02:54:42;9.20;99.90
25937;DHT22;13733;51.178;4.450;2023-03-29T02:57:10;9.20;99.90
25937;DHT22;13733;51.178;4.450;2023-03-29T02:59:37;9.20;99.90
25937;DHT22;13733;51.178;4.450;2023-03-29T03:02:08;9.20;99.90
25937;DHT22;13733;51.178;4.450;2023-03-29T03:04:34;9.50;99.90
25937;DHT22;13733;51.178;4.450;2023-03-29T03:07:01;9.70;99.90
25937;DHT22;13733;51.178;4.450;2023-03-29T03:09:29;9.60;99.90
25937;DHT22;13733;51.178;4.450;2023-03-29T03:11:56;9.50;99.90
25937;DHT22;13733;51.178;4.450;2023-03-29T03:14:24;9.30;99.90
25937;DHT22;13733;51.178;4.450;2023-03-29T03:16:49;9.30;99.90
25937;DHT22;13733;51.178;4.450;2023-03-29T03:19:17;9.30;99.90
25937;DHT22;13733;51.178;4.450;2023-03-29T03:21:44;9.50;99.90
25937;DHT22;13733;51.178;4.450;2023-03-29T03:24:11;9.80;99.90
25937;DHT22;13733;51.178;4.450;2023-03-29T03:26:38;9.70;99.90
25937;DHT22;13733;51.178;4.450;2023-03-29T03:29:04;9.60;99.90
25937;DHT22;13733;51.178;4.450;2023-03-29T03:31:49;9.60;99.90
25937;DHT22;13733;51.178;4.450;2023-03-29T03:34:51;9.50;99.90
25937;DHT22;13733;51.178;4.450;2023-03-29T03:37:17;9.60;99.90
25937;DHT22;13733;51.178;4.450;2023-03-29T03:39:42;9.50;99.90
25937;DHT22;13733;51.178;4.450;2023-03-29T03:42:09;9.60;99.90
25937;DHT22;13733;51.178;4.450;2023-03-29T03:44:40;9.60;99.90
25937;DHT22;13733;51.178;4.450;2023-03-29T03:47:24;9.60;99.90
25937;DHT22;13733;51.178;4.450;2023-03-29T03:49:51;9.80;99.90
25937;DHT22;13733;51.178;4.450;2023-03-29T03:52:19;9.70;99.90
25937;DHT22;13733;51.178;4.450;2023-03-29T03:54:45;9.70;99.90
25937;DHT22;13733;51.178;4.450;2023-03-29T03:57:32;9.50;99.90
25937;DHT22;13733;51.178;4.450;2023-03-29T03:59:58;9.50;99.90
25937;DHT22;13733;51.178;4.450;2023-03-29T04:02:27;9.70;99.90
25937;DHT22;13733;51.178;4.450;2023-03-29T04:04:53;9.80;99.90
25937;DHT22;13733;51.178;4.450;2023-03-29T04:07:20;9.90;99.90
25937;DHT22;13733;51.178;4.450;2023-03-29T04:10:09;9.70;99.90
25937;DHT22;13733;51.178;4.450;2023-03-29T04:12:38;9.60;99.90
25937;DHT22;13733;51.178;4.450;2023-03-29T04:15:06;9.70;99.90
25937;DHT22;13733;51.178;4.450;2023-03-29T04:17:33;9.70;99.90
25937;DHT22;13733;51.178;4.450;2023-03-29T04:20:22;9.80;99.90
25937;DHT22;13733;51.178;4.450;2023-03-29T04:22:49;9.80;99.90
25937;DHT22;13733;51.178;4.450;2023-03-29T04:25:16;9.80;99.90
25937;DHT22;13733;51.178;4.450;2023-03-29T04:27:45;10.00;99.90
25937;DHT22;13733;51.178;4.450;2023-03-29T04:30:32;9.70;99.90
25937;DHT22;13733;51.178;4.450;2023-03-29T04:33:33;9.70;99.90
25937;DHT22;13733;51.178;4.450;2023-03-29T04:36:00;9.60;99.90
25937;DHT22;13733;51.178;4.450;2023-03-29T04:38:26;9.70;99.90
25937;DHT22;13733;51.178;4.450;2023-03-29T04:40:53;9.70;99.90
25937;DHT22;13733;51.178;4.450;2023-03-29T04:43:39;9.80;99.90
25937;DHT22;13733;51.178;4.450;2023-03-29T04:46:19;9.70;99.90
25937;DHT22;13733;51.178;4.450;2023-03-29T04:49:03;9.60;99.90
25937;DHT22;13733;51.178;4.450;2023-03-29T04:51:36;9.70;99.90
25937;DHT22;13733;51.178;4.450;2023-03-29T04:54:03;9.70;99.90
25937;DHT22;13733;51.178;4.450;2023-03-29T04:56:35;9.80;99.90
25937;DHT22;13733;51.178;4.450;2023-03-29T04:59:27;9.70;99.90
25937;DHT22;13733;51.178;4.450;2023-03-29T05:01:54;9.60;99.90
25937;DHT22;13733;51.178;4.450;2023-03-29T05:04:20;9.60;99.90
25937;DHT22;13733;51.178;4.450;2023-03-29T05:07:00;9.50;99.90
25937;DHT22;13733;51.178;4.450;2023-03-29T05:09:27;9.60;99.90
25937;DHT22;13733;51.178;4.450;2023-03-29T05:11:54;9.60;99.90
25937;DHT22;13733;51.178;4.450;2023-03-29T05:14:21;9.70;99.90
25937;DHT22;13733;51.178;4.450;2023-03-29T05:16:47;9.70;99.90
25937;DHT22;13733;51.178;4.450;2023-03-29T05:19:13;9.60;99.90
25937;DHT22;13733;51.178;4.450;2023-03-29T05:21:44;9.80;99.90
25937;DHT22;13733;51.178;4.450;2023-03-29T05:24:13;9.70;99.90
25937;DHT22;13733;51.178;4.450;2023-03-29T05:26:51;9.80;99.90
25937;DHT22;13733;51.178;4.450;2023-03-29T05:29:17;9.90;99.90
25937;DHT22;13733;51.178;4.450;2023-03-29T05:31:48;9.70;99.90
25937;DHT22;13733;51.178;4.450;2023-03-29T05:34:15;9.80;99.90
25937;DHT22;13733;51.178;4.450;2023-03-29T05:36:45;9.80;99.90
25937;DHT22;13733;51.178;4.450;2023-03-29T05:39:12;9.80;99.90
25937;DHT22;13733;51.178;4.450;2023-03-29T05:41:38;9.80;99.90
25937;DHT22;13733;51.178;4.450;2023-03-29T05:44:26;10.20;99.90
25937;DHT22;13733;51.178;4.450;2023-03-29T05:46:59;10.00;99.90
25937;DHT22;13733;51.178;4.450;2023-03-29T05:49:25;10.10;99.90
25937;DHT22;13733;51.178;4.450;2023-03-29T05:51:59;10.10;99.90
25937;DHT22;13733;51.178;4.450;2023-03-29T05:54:27;10.20;99.90
25937;DHT22;13733;51.178;4.450;2023-03-29T05:56:53;10.10;99.90
25937;DHT22;13733;51.178;4.450;2023-03-29T05:59:19;10.10;99.90
25937;DHT22;13733;51.178;4.450;2023-03-29T06:01:45;10.20;99.90
25937;DHT22;13733;51.178;4.450;2023-03-29T06:04:13;10.20;99.90
25937;DHT22;13733;51.178;4.450;2023-03-29T06:06:48;10.10;99.90
25937;DHT22;13733;51.178;4.450;2023-03-29T06:09:13;10.20;99.90
25937;DHT22;13733;51.178;4.450;2023-03-29T06:11:53;10.20;99.90
25937;DHT22;13733;51.178;4.450;2023-03-29T06:14:36;10.30;99.90
25937;DHT22;13733;51.178;4.450;2023-03-29T06:17:18;10.20;99.90
25937;DHT22;13733;51.178;4.450;2023-03-29T06:19:45;10.40;99.90
25937;DHT22;13733;51.178;4.450;2023-03-29T06:22:11;10.50;99.90
25937;DHT22;13733;51.178;4.450;2023-03-29T06:24:36;10.50;99.90
25937;DHT22;13733;51.178;4.450;2023-03-29T06:27:09;10.50;99.90
25937;DHT22;13733;51.178;4.450;2023-03-29T06:29:35;10.50;99.90
25937;DHT22;13733;51.178;4.450;2023-03-29T06:32:00;10.40;99.90
25937;DHT22;13733;51.178;4.450;2023-03-29T06:34:44;10.30;99.90
25937;DHT22;13733;51.178;4.450;2023-03-29T06:37:21;10.30;99.90
25937;DHT22;13733;51.178;4.450;2023-03-29T06:39:54;10.60;99.90
25937;DHT22;13733;51.178;4.450;2023-03-29T06:42:39;10.70;99.90
25937;DHT22;13733;51.178;4.450;2023-03-29T06:45:24;10.70;99.90
25937;DHT22;13733;51.178;4.450;2023-03-29T06:47:51;10.80;99.90
25937;DHT22;13733;51.178;4.450;2023-03-29T06:50:18;10.80;99.90
25937;DHT22;13733;51.178;4.450;2023-03-29T06:53:09;10.70;99.90
25937;DHT22;13733;51.178;4.450;2023-03-29T06:55:34;10.60;99.90
25937;DHT22;13733;51.178;4.450;2023-03-29T06:58:16;10.50;99.90
25937;DHT22;13733;51.178;4.450;2023-03-29T07:00:42;10.60;99.90
25937;DHT22;13733;51.178;4.450;2023-03-29T07:03:15;10.50;99.90
25937;DHT22;13733;51.178;4.450;2023-03-29T07:05:48;10.60;99.90
25937;DHT22;13733;51.178;4.450;2023-03-29T07:08:16;10.80;99.90
25937;DHT22;13733;51.178;4.450;2023-03-29T07:10:56;10.90;99.90
25937;DHT22;13733;51.178;4.450;2023-03-29T07:13:25;11.00;99.90
25937;DHT22;13733;51.178;4.450;2023-03-29T07:15:52;10.90;99.90
25937;DHT22;13733;51.178;4.450;2023-03-29T07:18:39;10.90;99.90
25937;DHT22;13733;51.178;4.450;2023-03-29T07:21:06;10.80;99.90
25937;DHT22;13733;51.178;4.450;2023-03-29T07:23:33;11.10;99.90
25937;DHT22;13733;51.178;4.450;2023-03-29T07:25:59;11.30;99.90
25937;DHT22;13733;51.178;4.450;2023-03-29T07:28:25;11.20;99.90
25937;DHT22;13733;51.178;4.450;2023-03-29T07:30:51;11.10;99.90
25937;DHT22;13733;51.178;4.450;2023-03-29T07:33:20;11.00;99.90
25937;DHT22;13733;51.178;4.450;2023-03-29T07:35:54;11.20;99.90
25937;DHT22;13733;51.178;4.450;2023-03-29T07:38:20;11.20;99.90
25937;DHT22;13733;51.178;4.450;2023-03-29T07:40:52;11.00;99.90
25937;DHT22;13733;51.178;4.450;2023-03-29T07:43:41;11.00;99.90
25937;DHT22;13733;51.178;4.450;2023-03-29T07:46:08;11.00;99.90
25937;DHT22;13733;51.178;4.450;2023-03-29T07:48:34;10.90;99.90
25937;DHT22;13733;51.178;4.450;2023-03-29T07:51:06;10.90;99.90
25937;DHT22;13733;51.178;4.450;2023-03-29T07:53:47;10.90;99.90
25937;DHT22;13733;51.178;4.450;2023-03-29T07:56:35;10.80;99.90
25937;DHT22;13733;51.178;4.450;2023-03-29T07:59:14;10.80;99.90
25937;DHT22;13733;51.178;4.450;2023-03-29T08:01:42;10.80;99.90
25937;DHT22;13733;51.178;4.450;2023-03-29T08:04:28;10.90;99.90
25937;DHT22;13733;51.178;4.450;2023-03-29T08:07:13;10.90;99.90
25937;DHT22;13733;51.178;4.450;2023-03-29T08:09:57;10.80;99.90
25937;DHT22;13733;51.178;4.450;2023-03-29T08:12:48;10.90;99.90
25937;DHT22;13733;51.178;4.450;2023-03-29T08:15:15;10.80;99.90
25937;DHT22;13733;51.178;4.450;2023-03-29T08:17:42;11.00;99.90
25937;DHT22;13733;51.178;4.450;2023-03-29T08:20:11;11.10;99.90
25937;DHT22;13733;51.178;4.450;2023-03-29T08:22:39;11.00;99.90
25937;DHT22;13733;51.178;4.450;2023-03-29T08:25:21;10.90;99.90
25937;DHT22;13733;51.178;4.450;2023-03-29T08:27:50;10.90;99.90
25937;DHT22;13733;51.178;4.450;2023-03-29T08:30:27;11.00;99.90
25937;DHT22;13733;51.178;4.450;2023-03-29T08:32:53;11.10;99.90
25937;DHT22;13733;51.178;4.450;2023-03-29T08:35:19;11.20;99.90
25937;DHT22;13733;51.178;4.450;2023-03-29T08:37:58;11.10;99.90
25937;DHT22;13733;51.178;4.450;2023-03-29T08:40:25;11.40;99.90
25937;DHT22;13733;51.178;4.450;2023-03-29T08:46:36;11.60;99.90
25937;DHT22;13733;51.178;4.450;2023-03-29T08:49:20;11.90;99.90
25937;DHT22;13733;51.178;4.450;2023-03-29T08:51:55;12.10;99.90
25937;DHT22;13733;51.178;4.450;2023-03-29T08:54:25;12.30;99.90
25937;DHT22;13733;51.178;4.450;2023-03-29T08:57:21;12.50;99.90
25937;DHT22;13733;51.178;4.450;2023-03-29T08:59:57;12.80;99.90
25937;DHT22;13733;51.178;4.450;2023-03-29T09:02:26;13.00;99.90
25937;DHT22;13733;51.178;4.450;2023-03-29T09:05:34;13.20;99.90
25937;DHT22;13733;51.178;4.450;2023-03-29T09:08:15;13.40;99.90
25937;DHT22;13733;51.178;4.450;2023-03-29T09:11:09;13.40;99.90
25937;DHT22;13733;51.178;4.450;2023-03-29T09:30:02;13.70;99.90
25937;DHT22;13733;51.178;4.450;2023-03-29T09:32:58;13.70;99.90
25937;DHT22;13733;51.178;4.450;2023-03-29T09:36:06;13.50;99.90
25937;DHT22;13733;51.178;4.450;2023-03-29T09:38:41;13.70;99.90
25937;DHT22;13733;51.178;4.450;2023-03-29T09:41:26;13.70;99.90
25937;DHT22;13733;51.178;4.450;2023-03-29T09:43:59;13.70;99.90
25937;DHT22;13733;51.178;4.450;2023-03-29T09:46:40;13.80;99.90
25937;DHT22;13733;51.178;4.450;2023-03-29T09:49:12;14.10;99.90
25937;DHT22;13733;51.178;4.450;2023-03-29T09:51:40;14.20;99.90
25937;DHT22;13733;51.178;4.450;2023-03-29T09:54:10;14.20;99.90
25937;DHT22;13733;51.178;4.450;2023-03-29T09:57:15;14.30;99.90
25937;DHT22;13733;51.178;4.450;2023-03-29T09:59:42;14.80;99.90
25937;DHT22;13733;51.178;4.450;2023-03-29T10:02:10;15.20;99.90
25937;DHT22;13733;51.178;4.450;2023-03-29T10:04:38;15.50;99.90
25937;DHT22;13733;51.178;4.450;2023-03-29T10:07:13;15.40;99.90
25937;DHT22;13733;51.178;4.450;2023-03-29T10:09:41;15.30;99.90
25937;DHT22;13733;51.178;4.450;2023-03-29T10:12:15;15.30;99.90
25937;DHT22;13733;51.178;4.450;2023-03-29T10:14:47;15.40;99.90
25937;DHT22;13733;51.178;4.450;2023-03-29T10:17:25;15.90;99.90
25937;DHT22;13733;51.178;4.450;2023-03-29T10:20:05;16.10;99.90
25937;DHT22;13733;51.178;4.450;2023-03-29T10:22:34;16.00;99.90
25937;DHT22;13733;51.178;4.450;2023-03-29T10:25:03;16.20;99.90
25937;DHT22;13733;51.178;4.450;2023-03-29T10:27:32;16.30;99.90
25937;DHT22;13733;51.178;4.450;2023-03-29T10:30:06;16.20;99.90
25937;DHT22;13733;51.178;4.450;2023-03-29T10:32:34;16.10;99.90
25937;DHT22;13733;51.178;4.450;2023-03-29T10:35:21;16.10;99.90
25937;DHT22;13733;51.178;4.450;2023-03-29T10:37:50;16.30;99.90
25937;DHT22;13733;51.178;4.450;2023-03-29T10:40:24;16.50;99.90
25937;DHT22;13733;51.178;4.450;2023-03-29T10:42:51;16.80;99.90
25937;DHT22;13733;51.178;4.450;2023-03-29T10:45:23;16.80;99.90
25937;DHT22;13733;51.178;4.450;2023-03-29T10:47:50;16.40;99.90
25937;DHT22;13733;51.178;4.450;2023-03-29T10:50:15;16.50;99.90
25937;DHT22;13733;51.178;4.450;2023-03-29T10:52:41;16.60;99.90
25937;DHT22;13733;51.178;4.450;2023-03-29T10:55:12;16.20;99.90
25937;DHT22;13733;51.178;4.450;2023-03-29T11:03:06;15.90;99.90
25937;DHT22;13733;51.178;4.450;2023-03-29T11:05:53;16.20;99.90
25937;DHT22;13733;51.178;4.450;2023-03-29T11:25:10;16.90;99.90
25937;DHT22;13733;51.178;4.450;2023-03-29T11:28:00;17.30;99.90
25937;DHT22;13733;51.178;4.450;2023-03-29T11:31:23;17.80;99.90
25937;DHT22;13733;51.178;4.450;2023-03-29T11:34:11;17.50;99.90
25937;DHT22;13733;51.178;4.450;2023-03-29T11:36:49;17.40;99.90
25937;DHT22;13733;51.178;4.450;2023-03-29T11:42:09;17.60;99.90
25937;DHT22;13733;51.178;4.450;2023-03-29T11:44:37;17.10;99.90
25937;DHT22;13733;51.178;4.450;2023-03-29T11:47:07;16.90;99.90
25937;DHT22;13733;51.178;4.450;2023-03-29T11:49:44;16.80;99.90
25937;DHT22;13733;51.178;4.450;2023-03-29T11:52:18;16.90;99.90
25937;DHT22;13733;51.178;4.450;2023-03-29T11:55:12;17.20;99.90
25937;DHT22;13733;51.178;4.450;2023-03-29T11:57:58;17.80;99.90
25937;DHT22;13733;51.178;4.450;2023-03-29T12:00:57;17.80;99.90
25937;DHT22;13733;51.178;4.450;2023-03-29T12:06:19;18.30;99.90
25937;DHT22;13733;51.178;4.450;2023-03-29T12:08:51;18.40;99.90
25937;DHT22;13733;51.178;4.450;2023-03-29T12:14:02;18.00;99.90
25937;DHT22;13733;51.178;4.450;2023-03-29T12:16:55;18.10;99.90
25937;DHT22;13733;51.178;4.450;2023-03-29T12:19:25;18.00;99.90
25937;DHT22;13733;51.178;4.450;2023-03-29T12:21:54;18.10;99.90
25937;DHT22;13733;51.178;4.450;2023-03-29T12:24:24;18.20;99.90
25937;DHT22;13733;51.178;4.450;2023-03-29T12:38:39;17.30;99.90
25937;DHT22;13733;51.178;4.450;2023-03-29T12:41:36;17.40;99.90
25937;DHT22;13733;51.178;4.450;2023-03-29T12:44:22;17.20;99.90
25937;DHT22;13733;51.178;4.450;2023-03-29T12:47:00;17.20;99.90
25937;DHT22;13733;51.178;4.450;2023-03-29T12:49:33;17.30;99.90
25937;DHT22;13733;51.178;4.450;2023-03-29T12:52:02;17.40;99.90
25937;DHT22;13733;51.178;4.450;2023-03-29T12:54:32;17.40;99.90
25937;DHT22;13733;51.178;4.450;2023-03-29T12:57:18;17.80;99.90
25937;DHT22;13733;51.178;4.450;2023-03-29T12:59:47;18.00;99.90
25937;DHT22;13733;51.178;4.450;2023-03-29T13:07:14;18.70;99.90
25937;DHT22;13733;51.178;4.450;2023-03-29T13:09:53;18.80;99.90
25937;DHT22;13733;51.178;4.450;2023-03-29T13:12:43;19.40;99.90
25937;DHT22;13733;51.178;4.450;2023-03-29T13:17:59;19.40;99.90
25937;DHT22;13733;51.178;4.450;2023-03-29T13:20:44;19.40;99.90
25937;DHT22;13733;51.178;4.450;2023-03-29T13:23:28;19.70;99.90
25937;DHT22;13733;51.178;4.450;2023-03-29T13:34:11;19.10;99.90
25937;DHT22;13733;51.178;4.450;2023-03-29T13:39:27;18.10;99.90
25937;DHT22;13733;51.178;4.450;2023-03-29T13:44:42;18.30;99.90
25937;DHT22;13733;51.178;4.450;2023-03-29T13:49:55;18.50;99.90
25937;DHT22;13733;51.178;4.450;2023-03-29T13:54:56;19.10;99.90
25937;DHT22;13733;51.178;4.450;2023-03-29T13:57:41;19.40;99.90
25937;DHT22;13733;51.178;4.450;2023-03-29T14:02:54;18.50;99.90
25937;DHT22;13733;51.178;4.450;2023-03-29T14:05:41;18.60;99.90
25937;DHT22;13733;51.178;4.450;2023-03-29T14:08:41;18.50;99.90
25937;DHT22;13733;51.178;4.450;2023-03-29T14:11:07;18.60;99.90
25937;DHT22;13733;51.178;4.450;2023-03-29T14:13:37;18.80;99.90
25937;DHT22;13733;51.178;4.450;2023-03-29T14:16:07;19.40;99.90
25937;DHT22;13733;51.178;4.450;2023-03-29T14:18:39;19.90;99.90
25937;DHT22;13733;51.178;4.450;2023-03-29T14:21:06;19.50;99.90
25937;DHT22;13733;51.178;4.450;2023-03-29T14:23:35;19.50;99.90
25937;DHT22;13733;51.178;4.450;2023-03-29T14:26:16;19.30;99.90
25937;DHT22;13733;51.178;4.450;2023-03-29T14:28:46;19.30;99.90
25937;DHT22;13733;51.178;4.450;2023-03-29T14:31:33;19.40;99.90
25937;DHT22;13733;51.178;4.450;2023-03-29T14:34:01;19.20;99.90
25937;DHT22;13733;51.178;4.450;2023-03-29T14:36:29;18.80;99.90
25937;DHT22;13733;51.178;4.450;2023-03-29T14:41:46;18.80;99.90
25937;DHT22;13733;51.178;4.450;2023-03-29T14:44:13;18.90;99.90
25937;DHT22;13733;51.178;4.450;2023-03-29T14:46:40;18.60;99.90
25937;DHT22;13733;51.178;4.450;2023-03-29T14:49:09;18.70;99.90
25937;DHT22;13733;51.178;4.450;2023-03-29T14:51:37;18.90;99.90
25937;DHT22;13733;51.178;4.450;2023-03-29T14:54:05;18.90;99.90
25937;DHT22;13733;51.178;4.450;2023-03-29T14:56:31;18.70;99.90
25937;DHT22;13733;51.178;4.450;2023-03-29T14:58:59;18.90;99.90
25937;DHT22;13733;51.178;4.450;2023-03-29T15:01:26;19.10;99.90
25937;DHT22;13733;51.178;4.450;2023-03-29T15:03:55;19.20;99.90
25937;DHT22;13733;51.178;4.450;2023-03-29T15:06:25;19.40;99.90
25937;DHT22;13733;51.178;4.450;2023-03-29T15:08:51;19.10;99.90
25937;DHT22;13733;51.178;4.450;2023-03-29T15:11:20;18.90;99.90
25937;DHT22;13733;51.178;4.450;2023-03-29T15:13:54;18.70;99.90
25937;DHT22;13733;51.178;4.450;2023-03-29T15:16:22;18.60;99.90
25937;DHT22;13733;51.178;4.450;2023-03-29T15:18:50;18.30;99.90
25937;DHT22;13733;51.178;4.450;2023-03-29T15:21:19;18.30;99.90
25937;DHT22;13733;51.178;4.450;2023-03-29T15:23:50;18.20;99.90
25937;DHT22;13733;51.178;4.450;2023-03-29T15:26:25;18.30;99.90
25937;DHT22;13733;51.178;4.450;2023-03-29T15:29:10;18.50;99.90
25937;DHT22;13733;51.178;4.450;2023-03-29T15:31:39;19.00;99.90
25937;DHT22;13733;51.178;4.450;2023-03-29T15:34:22;19.00;99.90
25937;DHT22;13733;51.178;4.450;2023-03-29T15:36:49;19.10;99.90
25937;DHT22;13733;51.178;4.450;2023-03-29T15:39:16;19.10;99.90
25937;DHT22;13733;51.178;4.450;2023-03-29T15:41:44;19.20;99.90
25937;DHT22;13733;51.178;4.450;2023-03-29T15:44:11;19.20;99.90
25937;DHT22;13733;51.178;4.450;2023-03-29T15:46:39;18.90;99.90
25937;DHT22;13733;51.178;4.450;2023-03-29T15:49:07;18.80;99.90
25937;DHT22;13733;51.178;4.450;2023-03-29T15:51:34;19.20;99.90
25937;DHT22;13733;51.178;4.450;2023-03-29T15:54:00;19.20;99.90
25937;DHT22;13733;51.178;4.450;2023-03-29T15:56:26;19.30;99.90
25937;DHT22;13733;51.178;4.450;2023-03-29T15:58:52;19.10;99.90
25937;DHT22;13733;51.178;4.450;2023-03-29T16:01:29;19.00;99.90
25937;DHT22;13733;51.178;4.450;2023-03-29T16:04:02;18.70;99.90
25937;DHT22;13733;51.178;4.450;2023-03-29T16:06:29;18.80;99.90
25937;DHT22;13733;51.178;4.450;2023-03-29T16:08:55;19.00;99.90
25937;DHT22;13733;51.178;4.450;2023-03-29T16:11:21;19.20;99.90
25937;DHT22;13733;51.178;4.450;2023-03-29T16:13:47;18.80;99.90
25937;DHT22;13733;51.178;4.450;2023-03-29T16:16:13;19.00;99.90
25937;DHT22;13733;51.178;4.450;2023-03-29T16:18:38;18.90;99.90
25937;DHT22;13733;51.178;4.450;2023-03-29T16:21:04;18.90;99.90
25937;DHT22;13733;51.178;4.450;2023-03-29T16:23:30;18.70;99.90
25937;DHT22;13733;51.178;4.450;2023-03-29T16:25:56;18.60;99.90
25937;DHT22;13733;51.178;4.450;2023-03-29T16:28:24;18.60;99.90
25937;DHT22;13733;51.178;4.450;2023-03-29T16:30:50;18.40;99.90
25937;DHT22;13733;51.178;4.450;2023-03-29T16:33:16;18.20;99.90
25937;DHT22;13733;51.178;4.450;2023-03-29T16:35:42;18.20;99.90
25937;DHT22;13733;51.178;4.450;2023-03-29T16:38:07;18.10;99.90
25937;DHT22;13733;51.178;4.450;2023-03-29T16:40:34;18.10;99.90
25937;DHT22;13733;51.178;4.450;2023-03-29T16:43:00;17.90;99.90
25937;DHT22;13733;51.178;4.450;2023-03-29T16:45:26;18.10;99.90
25937;DHT22;13733;51.178;4.450;2023-03-29T16:47:52;17.90;99.90
25937;DHT22;13733;51.178;4.450;2023-03-29T16:50:19;17.90;99.90
25937;DHT22;13733;51.178;4.450;2023-03-29T16:52:46;17.90;99.90
25937;DHT22;13733;51.178;4.450;2023-03-29T16:55:14;18.00;99.90
25937;DHT22;13733;51.178;4.450;2023-03-29T16:57:44;18.00;99.90
25937;DHT22;13733;51.178;4.450;2023-03-29T17:00:12;17.90;99.90
25937;DHT22;13733;51.178;4.450;2023-03-29T17:02:43;17.90;99.90
25937;DHT22;13733;51.178;4.450;2023-03-29T17:05:12;17.70;99.90
25937;DHT22;13733;51.178;4.450;2023-03-29T17:07:38;17.60;99.90
25937;DHT22;13733;51.178;4.450;2023-03-29T17:10:09;17.60;99.90
25937;DHT22;13733;51.178;4.450;2023-03-29T17:12:35;17.50;99.90
25937;DHT22;13733;51.178;4.450;2023-03-29T17:15:02;17.60;99.90
25937;DHT22;13733;51.178;4.450;2023-03-29T17:17:28;17.50;99.90
25937;DHT22;13733;51.178;4.450;2023-03-29T17:19:54;17.50;99.90
25937;DHT22;13733;51.178;4.450;2023-03-29T17:22:21;17.50;99.90
25937;DHT22;13733;51.178;4.450;2023-03-29T17:24:47;17.40;99.90
25937;DHT22;13733;51.178;4.450;2023-03-29T17:27:13;17.30;99.90
25937;DHT22;13733;51.178;4.450;2023-03-29T17:29:39;17.20;99.90
25937;DHT22;13733;51.178;4.450;2023-03-29T17:32:04;17.10;99.90
25937;DHT22;13733;51.178;4.450;2023-03-29T17:34:31;17.10;99.90
25937;DHT22;13733;51.178;4.450;2023-03-29T17:36:57;17.10;99.90
25937;DHT22;13733;51.178;4.450;2023-03-29T17:39:24;17.10;99.90
25937;DHT22;13733;51.178;4.450;2023-03-29T17:41:52;17.10;99.90
25937;DHT22;13733;51.178;4.450;2023-03-29T17:44:18;17.00;99.90
25937;DHT22;13733;51.178;4.450;2023-03-29T17:46:44;17.00;99.90
25937;DHT22;13733;51.178;4.450;2023-03-29T17:49:10;17.00;99.90
25937;DHT22;13733;51.178;4.450;2023-03-29T17:51:36;17.10;99.90
25937;DHT22;13733;51.178;4.450;2023-03-29T17:54:02;17.10;99.90
25937;DHT22;13733;51.178;4.450;2023-03-29T17:56:28;17.00;99.90
25937;DHT22;13733;51.178;4.450;2023-03-29T17:58:54;16.90;99.90
25937;DHT22;13733;51.178;4.450;2023-03-29T18:01:20;16.80;99.90